createdAt,value
2023-02-08T00:01:19.252Z,-2.06
2023-02-08T00:03:47.432Z,-2.10
2023-02-08T00:06:17.144Z,-2.26
2023-02-08T00:08:45.423Z,-2.34
2023-02-08T00:11:14.000Z,-2.29
2023-02-08T00:13:42.952Z,-2.24
2023-02-08T00:16:12.427Z,-2.17
2023-02-08T00:18:40.712Z,-2.19
2023-02-08T00:21:10.420Z,-2.24
2023-02-08T00:23:39.933Z,-2.24
2023-02-08T00:26:08.261Z,-2.44
2023-02-08T00:28:36.368Z,-2.47
2023-02-08T00:31:04.453Z,-2.46
2023-02-08T00:33:32.438Z,-2.42
2023-02-08T00:36:00.913Z,-2.32
2023-02-08T00:38:29.145Z,-2.29
2023-02-08T00:40:58.464Z,-2.23
2023-02-08T00:43:26.408Z,-2.24
2023-02-08T00:45:55.820Z,-2.47
2023-02-08T00:48:23.763Z,-2.45
2023-02-08T00:51:01.908Z,-2.56
2023-02-08T00:53:29.807Z,-2.54
2023-02-08T00:55:59.110Z,-2.56
2023-02-08T00:58:27.056Z,-2.68
2023-02-08T01:00:55.092Z,-2.55
2023-02-08T01:03:23.356Z,-2.38
2023-02-08T01:05:51.258Z,-2.41
2023-02-08T01:08:20.559Z,-2.41
2023-02-08T01:10:49.122Z,-2.43
2023-02-08T01:13:18.562Z,-2.46
2023-02-08T01:15:46.503Z,-2.47
2023-02-08T01:18:14.384Z,-2.52
2023-02-08T01:20:42.475Z,-2.49
2023-02-08T01:23:10.402Z,-2.44
2023-02-08T01:25:38.304Z,-2.49
2023-02-08T01:28:06.271Z,-2.53
2023-02-08T01:30:35.621Z,-2.56
2023-02-08T01:33:03.620Z,-2.63
2023-02-08T01:35:31.546Z,-2.61
2023-02-08T01:37:59.497Z,-2.58
2023-02-08T01:40:27.372Z,-2.51
2023-02-08T01:42:55.299Z,-2.56
2023-02-08T01:45:27.726Z,-2.60
2023-02-08T01:48:04.664Z,-2.65
2023-02-08T01:50:38.016Z,-2.72
2023-02-08T01:53:06.172Z,-2.87
2023-02-08T01:55:37.127Z,-2.85
2023-02-08T01:58:07.614Z,-2.81
2023-02-08T02:00:35.532Z,-2.78
2023-02-08T02:03:06.053Z,-2.73
2023-02-08T02:05:37.099Z,-2.79
2023-02-08T02:08:05.275Z,-2.76
2023-02-08T02:10:35.394Z,-2.78
2023-02-08T02:13:06.386Z,-2.75
2023-02-08T02:15:34.517Z,-2.73
2023-02-08T02:18:03.977Z,-2.84
2023-02-08T02:20:41.654Z,-2.90
2023-02-08T02:23:30.070Z,-2.83
2023-02-08T02:26:21.564Z,-3.15
2023-02-08T02:29:12.508Z,-3.23
2023-02-08T02:32:02.129Z,-3.13
2023-02-08T02:34:35.909Z,-2.98
2023-02-08T02:37:12.868Z,-3.01
2023-02-08T02:39:44.507Z,-3.09
2023-02-08T02:42:32.740Z,-3.19
2023-02-08T02:45:07.711Z,-3.23
2023-02-08T02:47:41.195Z,-3.19
2023-02-08T02:50:14.928Z,-3.21
2023-02-08T02:52:46.551Z,-3.31
2023-02-08T02:55:16.792Z,-3.29
2023-02-08T02:57:46.300Z,-3.19
2023-02-08T03:00:22.215Z,-3.09
2023-02-08T03:02:51.598Z,-3.09
2023-02-08T03:05:19.654Z,-3.08
2023-02-08T03:08:17.166Z,-3.20
2023-02-08T03:11:20.682Z,-3.14
2023-02-08T03:14:05.372Z,-3.14
2023-02-08T03:16:40.491Z,-3.12
2023-02-08T03:19:15.819Z,-3.19
2023-02-08T03:21:48.188Z,-3.31
2023-02-08T03:24:26.347Z,-3.38
2023-02-08T03:26:58.463Z,-3.37
2023-02-08T03:29:34.720Z,-3.27
2023-02-08T03:32:05.816Z,-3.21
2023-02-08T03:34:38.883Z,-3.18
2023-02-08T03:37:09.785Z,-3.24
2023-02-08T03:39:38.912Z,-3.34
2023-02-08T03:42:10.434Z,-3.47
2023-02-08T03:44:39.953Z,-3.50
2023-02-08T03:47:10.657Z,-3.38
2023-02-08T03:49:40.576Z,-3.42
2023-02-08T03:52:11.134Z,-3.50
2023-02-08T03:54:44.080Z,-3.59
2023-02-08T03:57:14.956Z,-3.62
2023-02-08T03:59:45.028Z,-3.52
2023-02-08T04:02:17.022Z,-3.50
2023-02-08T04:04:48.870Z,-3.41
2023-02-08T04:07:18.401Z,-3.36
2023-02-08T04:09:46.396Z,-3.34
2023-02-08T04:12:14.516Z,-3.38
2023-02-08T04:14:42.614Z,-3.31
2023-02-08T04:17:10.535Z,-3.31
2023-02-08T04:19:38.466Z,-3.40
2023-02-08T04:22:07.821Z,-3.99
2023-02-08T04:24:35.691Z,-4.20
2023-02-08T04:27:05.829Z,-4.23
2023-02-08T04:29:33.957Z,-4.02
2023-02-08T04:32:02.332Z,-3.80
2023-02-08T04:34:30.260Z,-3.60
2023-02-08T04:36:58.132Z,-3.59
2023-02-08T04:39:27.678Z,-3.69
2023-02-08T04:41:55.579Z,-3.70
2023-02-08T04:44:23.502Z,-3.78
2023-02-08T04:46:51.923Z,-3.91
2023-02-08T04:49:19.890Z,-3.87
2023-02-08T04:51:47.803Z,-3.81
2023-02-08T04:54:15.728Z,-3.80
2023-02-08T04:56:44.992Z,-3.80
2023-02-08T04:59:12.877Z,-3.68
2023-02-08T05:01:40.871Z,-3.60
2023-02-08T05:04:08.805Z,-3.59
2023-02-08T05:06:36.722Z,-3.66
2023-02-08T05:09:05.128Z,-3.65
2023-02-08T05:11:33.052Z,-3.66
2023-02-08T05:14:02.373Z,-3.76
2023-02-08T05:16:30.238Z,-3.83
2023-02-08T05:18:58.313Z,-3.91
2023-02-08T05:21:26.280Z,-3.92
2023-02-08T05:23:54.230Z,-3.85
2023-02-08T05:26:22.167Z,-3.81
2023-02-08T05:28:50.094Z,-3.78
2023-02-08T05:31:21.822Z,-3.77
2023-02-08T05:33:50.427Z,-3.70
2023-02-08T05:36:18.537Z,-3.59
2023-02-08T05:38:46.830Z,-3.60
2023-02-08T05:41:14.760Z,-3.87
2023-02-08T05:43:42.812Z,-3.90
2023-02-08T05:46:10.725Z,-3.68
2023-02-08T05:48:40.056Z,-3.88
2023-02-08T05:51:07.936Z,-4.06
2023-02-08T05:53:36.854Z,-3.98
2023-02-08T05:56:04.902Z,-4.08
2023-02-08T05:58:32.836Z,-4.03
2023-02-08T06:01:00.712Z,-3.96
2023-02-08T06:03:28.674Z,-3.91
2023-02-08T06:06:01.862Z,-3.88
2023-02-08T06:08:29.786Z,-3.86
2023-02-08T06:10:57.667Z,-3.88
2023-02-08T06:13:25.644Z,-4.03
2023-02-08T06:15:53.537Z,-4.08
2023-02-08T06:18:21.440Z,-3.96
2023-02-08T06:20:53.752Z,-3.87
2023-02-08T06:23:23.496Z,-3.85
2023-02-08T06:25:52.017Z,-3.81
2023-02-08T06:28:19.932Z,-3.80
2023-02-08T06:30:50.167Z,-3.67
2023-02-08T06:33:18.474Z,-3.63
2023-02-08T06:35:47.079Z,-3.63
2023-02-08T06:38:14.995Z,-3.68
2023-02-08T06:40:45.212Z,-3.76
2023-02-08T06:43:13.132Z,-3.82
2023-02-08T06:45:42.810Z,-3.80
2023-02-08T06:48:10.814Z,-3.78
2023-02-08T06:50:39.019Z,-3.86
2023-02-08T06:53:07.124Z,-3.96
2023-02-08T06:55:35.148Z,-4.09
2023-02-08T06:58:04.419Z,-4.03
2023-02-08T07:00:32.864Z,-4.14
2023-02-08T07:03:01.636Z,-4.21
2023-02-08T07:05:29.557Z,-4.15
2023-02-08T07:07:57.553Z,-4.07
2023-02-08T07:10:25.455Z,-4.02
2023-02-08T07:12:53.336Z,-4.11
2023-02-08T07:15:22.647Z,-4.06
2023-02-08T07:17:50.540Z,-4.03
2023-02-08T07:20:18.526Z,-3.84
2023-02-08T07:22:46.458Z,-3.77
2023-02-08T07:25:14.380Z,-3.73
2023-02-08T07:27:42.324Z,-3.67
2023-02-08T07:30:11.409Z,-3.40
2023-02-08T07:32:40.737Z,-3.27
2023-02-08T07:35:09.347Z,-3.21
2023-02-08T07:37:37.241Z,-3.27
2023-02-08T07:40:05.376Z,-3.13
2023-02-08T07:42:34.368Z,-3.24
2023-02-08T07:45:02.244Z,-3.09
2023-02-08T07:47:30.172Z,-3.19
2023-02-08T07:49:59.476Z,-3.25
2023-02-08T07:52:27.369Z,-3.39
2023-02-08T07:54:55.314Z,-3.42
2023-02-08T07:57:23.573Z,-3.35
2023-02-08T07:59:53.858Z,-3.29
2023-02-08T08:02:22.152Z,-3.24
2023-02-08T08:04:50.067Z,-3.23
2023-02-08T08:07:19.580Z,-3.15
2023-02-08T08:09:47.488Z,-3.19
2023-02-08T08:12:15.375Z,-3.20
2023-02-08T08:14:43.264Z,-3.16
2023-02-08T08:17:11.196Z,-3.12
2023-02-08T08:19:39.469Z,-3.09
2023-02-08T08:22:07.357Z,-3.07
2023-02-08T08:24:36.690Z,-2.99
2023-02-08T08:27:04.892Z,-2.89
2023-02-08T08:29:33.294Z,-2.92
2023-02-08T08:32:01.384Z,-2.87
2023-02-08T08:34:30.735Z,-2.84
2023-02-08T08:36:59.010Z,-2.82
2023-02-08T08:39:27.386Z,-2.74
2023-02-08T08:41:58.727Z,-2.35
2023-02-08T08:44:26.931Z,-2.52
2023-02-08T08:46:56.779Z,-2.61
2023-02-08T08:49:24.780Z,-2.49
2023-02-08T08:51:52.790Z,-2.46
2023-02-08T08:54:22.538Z,-2.46
2023-02-08T08:56:50.689Z,-2.30
2023-02-08T08:59:22.075Z,-2.22
2023-02-08T09:01:50.042Z,-2.19
2023-02-08T09:04:18.009Z,-2.21
2023-02-08T09:06:46.029Z,-1.84
2023-02-08T09:09:14.190Z,-1.69
2023-02-08T09:11:42.151Z,-1.48
2023-02-08T09:14:10.092Z,-1.41
2023-02-08T09:16:41.195Z,-1.39
2023-02-08T09:19:10.709Z,-1.20
2023-02-08T09:21:38.695Z,-1.41
2023-02-08T09:24:07.115Z,-0.66
2023-02-08T09:26:35.205Z,-1.08
2023-02-08T09:29:03.173Z,-0.77
2023-02-08T09:31:33.355Z,-1.19
2023-02-08T09:34:02.842Z,-0.50
2023-02-08T09:36:33.932Z,0.06
2023-02-08T09:39:03.672Z,0.34
2023-02-08T09:41:42.698Z,0.44
2023-02-08T09:44:18.644Z,0.57
2023-02-08T09:46:53.343Z,0.07
2023-02-08T09:49:26.208Z,0.73
2023-02-08T09:51:58.028Z,0.64
2023-02-08T09:54:29.902Z,0.37
2023-02-08T09:57:00.027Z,0.19
2023-02-08T09:59:30.419Z,-0.17
2023-02-08T10:02:02.022Z,0.89
2023-02-08T10:04:38.547Z,1.29
2023-02-08T10:07:06.613Z,1.37
2023-02-08T10:09:34.516Z,1.68
2023-02-08T10:12:11.668Z,1.67
2023-02-08T10:14:55.250Z,1.74
2023-02-08T10:17:33.669Z,1.89
2023-02-08T10:20:14.207Z,2.07
2023-02-08T10:22:50.353Z,1.96
2023-02-08T10:25:28.272Z,2.01
2023-02-08T10:28:06.917Z,2.24
2023-02-08T10:30:40.539Z,2.38
2023-02-08T10:33:13.660Z,2.27
2023-02-08T10:35:46.338Z,2.42
2023-02-08T10:38:44.095Z,2.72
2023-02-08T10:41:16.967Z,2.80
2023-02-08T10:43:47.360Z,2.93
2023-02-08T10:46:20.274Z,3.11
2023-02-08T10:48:58.674Z,3.12
2023-02-08T10:51:28.311Z,3.24
2023-02-08T10:53:56.283Z,3.27
2023-02-08T10:56:36.814Z,3.23
2023-02-08T10:59:08.909Z,3.50
2023-02-08T11:01:36.796Z,3.51
2023-02-08T11:04:06.870Z,3.61
2023-02-08T11:06:36.255Z,3.72
2023-02-08T11:09:04.998Z,4.00
2023-02-08T11:11:36.326Z,3.03
2023-02-08T11:14:10.094Z,3.63
2023-02-08T11:16:38.416Z,2.48
2023-02-08T11:19:08.001Z,3.64
2023-02-08T11:21:38.720Z,3.92
2023-02-08T11:24:22.794Z,4.07
2023-02-08T11:26:50.756Z,3.62
2023-02-08T11:29:20.707Z,3.47
2023-02-08T11:32:00.162Z,3.21
2023-02-08T11:34:29.156Z,4.15
2023-02-08T11:36:59.741Z,4.28
2023-02-08T11:39:29.629Z,4.22
2023-02-08T11:42:00.286Z,4.52
2023-02-08T11:44:31.568Z,4.30
2023-02-08T11:47:02.069Z,4.25
2023-02-08T11:49:33.638Z,4.28
2023-02-08T11:52:03.016Z,4.58
2023-02-08T11:54:36.698Z,4.75
2023-02-08T11:57:10.701Z,4.49
2023-02-08T11:59:38.595Z,4.58
2023-02-08T12:02:27.440Z,4.73
2023-02-08T12:04:55.416Z,4.84
2023-02-08T12:07:31.698Z,5.06
2023-02-08T12:10:10.372Z,4.99
2023-02-08T12:12:48.751Z,5.20
2023-02-08T12:15:22.799Z,4.92
2023-02-08T12:18:16.816Z,5.32
2023-02-08T12:20:47.057Z,5.34
2023-02-08T12:23:43.158Z,5.14
2023-02-08T12:26:18.147Z,5.16
2023-02-08T12:28:59.184Z,5.41
2023-02-08T12:31:38.288Z,5.38
2023-02-08T12:34:12.012Z,5.57
2023-02-08T12:37:24.730Z,5.54
2023-02-08T12:40:18.022Z,5.12
2023-02-08T12:42:56.201Z,5.45
2023-02-08T12:45:59.124Z,5.33
2023-02-08T12:48:38.825Z,5.39
2023-02-08T12:51:13.592Z,5.42
2023-02-08T12:53:45.032Z,5.44
2023-02-08T12:56:17.256Z,5.61
2023-02-08T12:58:47.123Z,5.89
2023-02-08T13:01:18.035Z,5.68
2023-02-08T13:03:49.874Z,6.03
2023-02-08T13:06:21.197Z,6.17
2023-02-08T13:08:52.089Z,6.17
2023-02-08T13:11:26.692Z,6.27
2023-02-08T13:13:58.967Z,5.96
2023-02-08T13:16:30.570Z,6.02
2023-02-08T13:19:14.192Z,6.51
2023-02-08T13:21:44.066Z,6.03
2023-02-08T13:24:26.798Z,6.13
2023-02-08T13:26:56.108Z,6.26
2023-02-08T13:29:26.580Z,6.28
2023-02-08T13:31:59.692Z,6.15
2023-02-08T13:34:32.339Z,6.42
2023-02-08T13:37:02.459Z,6.31
2023-02-08T13:39:35.833Z,6.29
2023-02-08T13:42:07.065Z,6.41
2023-02-08T13:44:37.306Z,6.28
2023-02-08T13:47:06.841Z,6.44
2023-02-08T13:50:00.106Z,6.35
2023-02-08T13:52:55.186Z,6.38
2023-02-08T13:55:55.653Z,6.35
2023-02-08T13:58:39.463Z,6.22
2023-02-08T14:01:22.141Z,6.03
2023-02-08T14:04:18.749Z,6.12
2023-02-08T14:06:49.381Z,6.08
2023-02-08T14:09:23.207Z,6.13
2023-02-08T14:11:52.968Z,6.19
2023-02-08T14:14:24.740Z,6.02
2023-02-08T14:17:11.356Z,5.95
2023-02-08T14:19:41.138Z,5.98
2023-02-08T14:22:17.819Z,6.10
2023-02-08T14:24:49.608Z,5.92
2023-02-08T14:27:21.225Z,5.92
2023-02-08T14:29:59.260Z,6.05
2023-02-08T14:32:28.928Z,6.04
2023-02-08T14:35:05.872Z,6.01
2023-02-08T14:37:34.874Z,5.94
2023-02-08T14:40:36.172Z,5.97
2023-02-08T14:43:06.061Z,5.78
2023-02-08T14:45:36.728Z,5.83
2023-02-08T14:48:18.579Z,5.70
2023-02-08T14:51:02.952Z,5.72
2023-02-08T14:53:35.812Z,5.66
2023-02-08T14:56:07.934Z,5.57
2023-02-08T14:58:38.115Z,5.50
2023-02-08T15:01:14.245Z,5.46
2023-02-08T15:03:43.296Z,5.36
2023-02-08T15:06:49.914Z,5.31
2023-02-08T15:09:20.515Z,5.40
2023-02-08T15:11:58.545Z,5.21
2023-02-08T15:14:26.708Z,5.20
2023-02-08T15:16:57.294Z,5.12
2023-02-08T15:19:27.626Z,5.15
2023-02-08T15:21:55.893Z,5.14
2023-02-08T15:24:29.085Z,5.08
2023-02-08T15:26:58.162Z,4.89
2023-02-08T15:29:39.123Z,4.97
2023-02-08T15:32:17.607Z,4.82
2023-02-08T15:34:46.722Z,4.96
2023-02-08T15:37:17.423Z,4.73
2023-02-08T15:39:45.687Z,4.55
2023-02-08T15:42:17.857Z,4.54
2023-02-08T15:44:46.276Z,4.47
2023-02-08T15:47:18.848Z,4.54
2023-02-08T15:49:50.737Z,4.52
2023-02-08T15:52:20.693Z,4.51
2023-02-08T15:54:49.248Z,4.32
2023-02-08T15:57:31.728Z,4.12
2023-02-08T16:00:00.215Z,4.17
2023-02-08T16:02:31.387Z,4.07
2023-02-08T16:05:00.004Z,3.95
2023-02-08T16:07:30.151Z,3.93
2023-02-08T16:09:58.683Z,3.71
2023-02-08T16:12:28.226Z,3.70
2023-02-08T16:14:57.261Z,3.54
2023-02-08T16:17:38.466Z,3.53
2023-02-08T16:20:25.596Z,3.70
2023-02-08T16:22:57.236Z,3.42
2023-02-08T16:25:44.054Z,3.04
2023-02-08T16:28:29.364Z,3.09
2023-02-08T16:30:58.549Z,3.20
2023-02-08T16:33:28.726Z,3.23
2023-02-08T16:36:01.883Z,3.04
2023-02-08T16:38:31.587Z,3.08
2023-02-08T16:41:12.063Z,2.97
2023-02-08T16:43:43.918Z,3.13
2023-02-08T16:46:24.683Z,3.17
2023-02-08T16:48:55.638Z,2.88
2023-02-08T16:51:26.318Z,2.94
2023-02-08T16:53:57.461Z,2.92
2023-02-08T16:56:25.649Z,2.84
2023-02-08T16:58:53.574Z,2.73
2023-02-08T17:01:23.360Z,2.60
2023-02-08T17:03:52.992Z,2.31
2023-02-08T17:06:30.357Z,1.99
2023-02-08T17:08:58.447Z,2.22
2023-02-08T17:11:26.343Z,1.98
2023-02-08T17:13:54.287Z,2.04
2023-02-08T17:16:23.647Z,2.19
2023-02-08T17:18:51.788Z,2.26
2023-02-08T17:21:20.293Z,2.37
2023-02-08T17:23:50.125Z,2.18
2023-02-08T17:26:20.023Z,1.72
2023-02-08T17:28:47.974Z,1.95
2023-02-08T17:31:15.997Z,1.39
2023-02-08T17:33:44.127Z,1.50
2023-02-08T17:36:13.943Z,1.62
2023-02-08T17:38:42.901Z,1.90
2023-02-08T17:41:14.856Z,1.91
2023-02-08T17:43:42.888Z,1.91
2023-02-08T17:46:11.675Z,1.91
2023-02-08T17:48:39.858Z,1.93
2023-02-08T17:51:11.197Z,2.01
2023-02-08T17:53:40.895Z,1.99
2023-02-08T17:56:09.711Z,2.03
2023-02-08T17:58:39.009Z,2.00
2023-02-08T18:01:08.157Z,1.92
2023-02-08T18:03:36.424Z,1.83
2023-02-08T18:06:06.115Z,1.84
2023-02-08T18:08:35.081Z,1.84
2023-02-08T18:11:05.116Z,1.80
2023-02-08T18:13:33.241Z,1.78
2023-02-08T18:16:08.023Z,1.73
2023-02-08T18:18:35.974Z,1.61
2023-02-08T18:21:09.243Z,1.62
2023-02-08T18:23:37.202Z,1.66
2023-02-08T18:26:06.750Z,1.58
2023-02-08T18:28:34.868Z,1.57
2023-02-08T18:31:05.791Z,1.48
2023-02-08T18:33:34.375Z,1.39
2023-02-08T18:36:02.727Z,1.46
2023-02-08T18:38:30.893Z,1.44
2023-02-08T18:40:59.084Z,1.31
2023-02-08T18:43:27.726Z,1.30
2023-02-08T18:46:04.788Z,1.24
2023-02-08T18:48:35.242Z,1.24
2023-02-08T18:51:03.929Z,1.19
2023-02-08T18:53:33.420Z,1.10
2023-02-08T18:56:02.586Z,1.10
2023-02-08T18:58:30.571Z,1.02
2023-02-08T19:01:07.475Z,1.07
2023-02-08T19:03:36.154Z,1.00
2023-02-08T19:06:06.345Z,0.96
2023-02-08T19:09:06.134Z,0.95
2023-02-08T19:11:37.677Z,0.93
2023-02-08T19:14:08.145Z,0.88
2023-02-08T19:16:38.467Z,0.86
2023-02-08T19:19:07.578Z,0.78
2023-02-08T19:21:36.041Z,0.76
2023-02-08T19:24:04.010Z,0.73
2023-02-08T19:26:33.811Z,0.65
2023-02-08T19:29:03.570Z,0.54
2023-02-08T19:31:32.028Z,0.57
2023-02-08T19:34:03.307Z,0.56
2023-02-08T19:36:32.900Z,0.58
2023-02-08T19:39:02.061Z,0.55
2023-02-08T19:41:34.371Z,0.60
2023-02-08T19:44:06.715Z,0.43
2023-02-08T19:46:38.764Z,0.45
2023-02-08T19:49:08.382Z,0.49
2023-02-08T19:51:37.176Z,0.41
2023-02-08T19:54:08.538Z,0.29
2023-02-08T19:56:36.516Z,0.25
2023-02-08T19:59:05.576Z,0.34
2023-02-08T20:01:35.521Z,0.32
2023-02-08T20:04:03.955Z,0.15
2023-02-08T20:06:35.246Z,0.15
2023-02-08T20:09:04.028Z,0.21
2023-02-08T20:11:33.899Z,0.11
2023-02-08T20:14:02.588Z,0.06
2023-02-08T20:16:31.866Z,0.00
2023-02-08T20:19:00.665Z,0.15
2023-02-08T20:21:28.899Z,0.16
2023-02-08T20:23:58.493Z,0.03
2023-02-08T20:26:27.869Z,0.01
2023-02-08T20:28:58.788Z,-0.03
2023-02-08T20:31:29.223Z,-0.12
2023-02-08T20:33:59.779Z,-0.11
2023-02-08T20:36:29.943Z,-0.13
2023-02-08T20:39:00.109Z,-0.14
2023-02-08T20:41:31.156Z,-0.18
2023-02-08T20:43:59.088Z,-0.25
2023-02-08T20:46:30.840Z,-0.31
2023-02-08T20:49:00.098Z,-0.36
2023-02-08T20:51:28.803Z,-0.30
2023-02-08T20:53:59.587Z,-0.38
2023-02-08T20:56:29.260Z,-0.39
2023-02-08T20:58:57.245Z,-0.43
2023-02-08T21:01:26.810Z,-0.49
2023-02-08T21:03:54.934Z,-0.42
2023-02-08T21:06:26.458Z,-0.51
2023-02-08T21:08:55.704Z,-0.52
2023-02-08T21:11:27.015Z,-0.43
2023-02-08T21:13:55.080Z,-0.51
2023-02-08T21:16:23.157Z,-0.64
2023-02-08T21:18:51.507Z,-0.66
2023-02-08T21:21:19.788Z,-0.68
2023-02-08T21:23:48.135Z,-0.53
2023-02-08T21:26:18.020Z,-0.56
2023-02-08T21:28:47.640Z,-0.73
2023-02-08T21:31:17.381Z,-0.69
2023-02-08T21:33:45.698Z,-0.75
2023-02-08T21:36:15.527Z,-0.81
2023-02-08T21:38:43.716Z,-0.83
2023-02-08T21:41:13.731Z,-0.82
2023-02-08T21:43:41.690Z,-0.89
2023-02-08T21:46:11.226Z,-0.85
2023-02-08T21:48:53.101Z,-0.78
2023-02-08T21:51:39.163Z,-0.79
2023-02-08T21:54:30.422Z,-0.87
2023-02-08T21:56:59.778Z,-0.93
2023-02-08T21:59:27.886Z,-1.00
2023-02-08T22:01:57.333Z,-1.01
2023-02-08T22:04:25.492Z,-0.95
2023-02-08T22:06:52.726Z,-1.02
2023-02-08T22:09:21.861Z,-1.07
2023-02-08T22:11:50.300Z,-0.96
2023-02-08T22:14:18.268Z,-0.97
2023-02-08T22:16:46.175Z,-1.06
2023-02-08T22:19:15.619Z,-1.10
2023-02-08T22:21:43.542Z,-1.09
2023-02-08T22:24:11.464Z,-1.11
2023-02-08T22:26:39.502Z,-1.15
2023-02-08T22:29:07.423Z,-1.16
2023-02-08T22:31:36.751Z,-1.17
2023-02-08T22:34:05.071Z,-1.10
2023-02-08T22:36:34.617Z,-1.17
2023-02-08T22:39:02.565Z,-1.17
2023-02-08T22:41:30.464Z,-1.25
2023-02-08T22:43:58.441Z,-1.26
2023-02-08T22:46:26.477Z,-1.27
2023-02-08T22:48:54.405Z,-1.21
2023-02-08T22:51:23.631Z,-1.25
2023-02-08T22:53:52.946Z,-1.23
2023-02-08T22:56:20.909Z,-1.24
2023-02-08T22:58:48.816Z,-1.22
2023-02-08T23:01:17.958Z,-1.20
2023-02-08T23:03:45.980Z,-1.21
2023-02-08T23:06:16.989Z,-1.29
2023-02-08T23:08:45.029Z,-1.27
2023-02-08T23:11:15.395Z,-1.22
2023-02-08T23:13:43.316Z,-1.26
2023-02-08T23:16:13.265Z,-1.31
2023-02-08T23:18:41.576Z,-1.21
2023-02-08T23:21:11.565Z,-1.30
2023-02-08T23:23:39.951Z,-1.30
2023-02-08T23:26:08.651Z,-1.33
2023-02-08T23:28:38.441Z,-1.26
2023-02-08T23:31:06.992Z,-1.30
2023-02-08T23:33:35.486Z,-1.37
2023-02-08T23:36:06.479Z,-1.32
2023-02-08T23:38:34.433Z,-1.34
2023-02-08T23:41:04.184Z,-1.33
2023-02-08T23:43:32.102Z,-1.36
2023-02-08T23:46:06.918Z,-1.35
2023-02-08T23:48:34.865Z,-1.31
2023-02-08T23:51:04.095Z,-1.34
2023-02-08T23:53:32.559Z,-1.33
2023-02-08T23:56:06.378Z,-1.35
2023-02-08T23:58:34.344Z,-1.34
